createdAt,value
2023-02-23T00:01:54.237Z,16.16
2023-02-23T00:03:57.672Z,16.10
2023-02-23T00:06:02.506Z,16.15
2023-02-23T00:08:04.493Z,16.16
2023-02-23T00:10:07.275Z,16.06
2023-02-23T00:12:09.279Z,16.03
2023-02-23T00:14:12.399Z,16.01
2023-02-23T00:16:18.507Z,16.01
2023-02-23T00:18:20.094Z,15.96
2023-02-23T00:20:22.460Z,15.97
2023-02-23T00:22:25.323Z,15.94
2023-02-23T00:24:27.093Z,15.91
2023-02-23T00:26:30.605Z,15.91
2023-02-23T00:28:32.296Z,15.96
2023-02-23T00:30:35.279Z,15.96
2023-02-23T00:32:36.930Z,15.94
2023-02-23T00:34:38.853Z,15.96
2023-02-23T00:36:40.973Z,15.92
2023-02-23T00:38:42.592Z,15.92
2023-02-23T00:40:44.179Z,15.91
2023-02-23T00:42:47.877Z,15.86
2023-02-23T00:44:49.576Z,15.92
2023-02-23T00:46:53.076Z,15.92
2023-02-23T00:48:56.593Z,15.92
2023-02-23T00:50:59.697Z,15.94
2023-02-23T00:53:01.293Z,15.91
2023-02-23T00:55:02.935Z,15.94
2023-02-23T00:57:04.516Z,15.94
2023-02-23T00:59:06.732Z,15.95
2023-02-23T01:01:09.502Z,15.90
2023-02-23T01:03:12.411Z,15.86
2023-02-23T01:05:14.640Z,15.85
2023-02-23T01:07:16.284Z,15.83
2023-02-23T01:09:17.920Z,15.84
2023-02-23T01:11:21.196Z,15.76
2023-02-23T01:13:26.038Z,15.68
2023-02-23T01:15:27.763Z,15.70
2023-02-23T01:17:29.433Z,15.70
2023-02-23T01:19:35.574Z,15.72
2023-02-23T01:21:40.109Z,15.76
2023-02-23T01:23:41.763Z,15.76
2023-02-23T01:25:45.157Z,15.74
2023-02-23T01:27:46.845Z,15.73
2023-02-23T01:29:48.557Z,15.73
2023-02-23T01:34:02.131Z,15.73
2023-02-23T01:36:05.678Z,15.70
2023-02-23T01:38:07.339Z,15.69
2023-02-23T01:40:13.777Z,15.64
2023-02-23T01:42:15.412Z,15.55
2023-02-23T01:44:54.031Z,15.58
2023-02-23T01:46:55.567Z,15.61
2023-02-23T01:48:57.725Z,15.64
2023-02-23T01:51:02.368Z,15.66
2023-02-23T01:53:06.011Z,15.64
2023-02-23T01:55:10.599Z,15.63
2023-02-23T01:57:14.609Z,15.55
2023-02-23T01:59:17.698Z,15.55
2023-02-23T02:01:19.745Z,15.61
2023-02-23T02:05:29.623Z,15.52
2023-02-23T02:07:32.994Z,15.54
2023-02-23T02:09:36.161Z,15.56
2023-02-23T02:11:39.819Z,15.43
2023-02-23T02:13:41.414Z,15.42
2023-02-23T02:15:59.229Z,15.39
2023-02-23T02:18:11.168Z,15.38
2023-02-23T02:20:37.690Z,15.38
2023-02-23T02:23:15.385Z,15.36
2023-02-23T02:25:35.603Z,15.32
2023-02-23T02:28:12.735Z,15.31
2023-02-23T02:30:55.198Z,15.28
2023-02-23T02:33:29.613Z,15.26
2023-02-23T02:35:49.225Z,15.31
2023-02-23T02:38:10.362Z,15.33
2023-02-23T02:40:21.925Z,15.25
2023-02-23T02:42:34.277Z,15.28
2023-02-23T02:44:43.384Z,15.24
2023-02-23T02:46:48.881Z,15.26
2023-02-23T02:48:58.156Z,15.25
2023-02-23T02:51:07.353Z,15.31
2023-02-23T02:53:11.482Z,15.30
2023-02-23T02:55:17.260Z,15.33
2023-02-23T02:57:22.491Z,15.31
2023-02-23T02:59:24.397Z,15.31
2023-02-23T03:01:26.218Z,15.32
2023-02-23T03:03:29.997Z,15.37
2023-02-23T03:05:43.214Z,15.38
2023-02-23T03:07:53.713Z,15.36
2023-02-23T03:10:03.279Z,15.33
2023-02-23T03:12:11.876Z,15.25
2023-02-23T03:14:25.338Z,15.26
2023-02-23T03:16:36.231Z,15.25
2023-02-23T03:18:57.970Z,15.24
2023-02-23T03:21:08.290Z,15.27
2023-02-23T03:23:19.048Z,15.27
2023-02-23T03:25:29.503Z,15.36
2023-02-23T03:27:44.337Z,15.33
2023-02-23T03:29:54.728Z,15.33
2023-02-23T03:32:09.695Z,15.26
2023-02-23T03:34:17.015Z,15.20
2023-02-23T03:36:23.148Z,15.17
2023-02-23T03:38:29.832Z,15.14
2023-02-23T03:40:37.261Z,15.13
2023-02-23T03:42:50.600Z,15.15
2023-02-23T03:44:56.678Z,15.10
2023-02-23T03:47:00.855Z,15.12
2023-02-23T03:49:07.227Z,15.06
2023-02-23T03:51:13.528Z,15.08
2023-02-23T03:53:20.028Z,15.14
2023-02-23T03:55:25.631Z,15.13
2023-02-23T03:57:31.303Z,15.12
2023-02-23T03:59:39.142Z,15.16
2023-02-23T04:01:41.344Z,15.26
2023-02-23T04:03:46.248Z,15.22
2023-02-23T04:05:50.981Z,15.21
2023-02-23T04:07:54.190Z,15.22
2023-02-23T04:09:55.822Z,15.20
2023-02-23T04:12:06.138Z,15.22
2023-02-23T04:14:18.532Z,15.21
2023-02-23T04:16:20.236Z,15.23
2023-02-23T04:18:24.620Z,15.23
2023-02-23T04:20:27.290Z,15.07
2023-02-23T04:22:28.850Z,15.02
2023-02-23T04:24:30.440Z,15.01
2023-02-23T04:26:32.013Z,15.03
2023-02-23T04:28:33.856Z,15.01
2023-02-23T04:30:36.737Z,15.02
2023-02-23T04:32:38.634Z,15.02
2023-02-23T04:34:40.259Z,14.95
2023-02-23T04:36:41.804Z,14.95
2023-02-23T04:38:43.500Z,15.01
2023-02-23T04:40:45.166Z,14.99
2023-02-23T04:42:46.676Z,15.00
2023-02-23T04:44:48.218Z,14.95
2023-02-23T04:46:51.187Z,14.93
2023-02-23T04:48:52.736Z,14.93
2023-02-23T04:50:54.769Z,14.89
2023-02-23T04:52:56.510Z,14.90
2023-02-23T04:54:58.335Z,14.91
2023-02-23T04:56:59.918Z,14.91
2023-02-23T04:59:01.920Z,14.89
2023-02-23T05:01:08.190Z,14.98
2023-02-23T05:03:11.321Z,14.94
2023-02-23T05:05:12.956Z,14.93
2023-02-23T05:07:14.506Z,14.93
2023-02-23T05:09:16.453Z,14.73
2023-02-23T05:11:18.573Z,14.76
2023-02-23T05:13:20.239Z,14.79
2023-02-23T05:15:21.829Z,14.91
2023-02-23T05:17:23.735Z,14.95
2023-02-23T05:19:26.925Z,14.97
2023-02-23T05:21:28.531Z,14.93
2023-02-23T05:23:30.140Z,14.92
2023-02-23T05:25:31.660Z,14.90
2023-02-23T05:27:33.299Z,14.85
2023-02-23T05:29:35.156Z,14.88
2023-02-23T05:31:36.807Z,14.91
2023-02-23T05:33:39.477Z,14.89
2023-02-23T05:35:42.499Z,14.88
2023-02-23T05:37:44.048Z,14.90
2023-02-23T05:39:46.220Z,14.91
2023-02-23T05:41:47.920Z,14.84
2023-02-23T05:43:50.808Z,14.84
2023-02-23T05:45:52.475Z,14.84
2023-02-23T05:47:54.075Z,14.84
2023-02-23T05:49:55.640Z,14.82
2023-02-23T05:51:58.522Z,14.83
2023-02-23T05:54:00.487Z,14.76
2023-02-23T05:56:02.829Z,14.80
2023-02-23T05:58:04.405Z,14.87
2023-02-23T06:00:08.022Z,14.88
2023-02-23T06:02:09.554Z,14.93
2023-02-23T06:04:11.146Z,15.02
2023-02-23T06:06:13.071Z,15.03
2023-02-23T06:08:15.948Z,15.04
2023-02-23T06:10:18.002Z,15.07
2023-02-23T06:12:19.637Z,15.02
2023-02-23T06:14:21.197Z,14.99
2023-02-23T06:16:22.831Z,15.02
2023-02-23T06:18:25.042Z,15.08
2023-02-23T06:20:26.701Z,15.12
2023-02-23T06:22:28.261Z,15.05
2023-02-23T06:24:31.425Z,14.93
2023-02-23T06:26:32.929Z,14.93
2023-02-23T06:28:34.699Z,14.95
2023-02-23T06:30:37.222Z,14.95
2023-02-23T06:32:38.866Z,14.93
2023-02-23T06:34:40.493Z,14.93
2023-02-23T06:36:42.275Z,14.93
2023-02-23T06:38:43.774Z,14.91
2023-02-23T06:40:54.237Z,14.91
2023-02-23T06:42:55.992Z,14.93
2023-02-23T06:44:57.618Z,14.90
2023-02-23T06:46:59.138Z,14.98
2023-02-23T06:49:00.805Z,14.95
2023-02-23T06:51:02.357Z,14.95
2023-02-23T06:53:04.284Z,14.93
2023-02-23T06:55:07.477Z,14.81
2023-02-23T06:57:10.650Z,14.95
2023-02-23T06:59:12.398Z,14.95
2023-02-23T07:01:14.181Z,15.07
2023-02-23T07:03:26.024Z,15.07
2023-02-23T07:05:27.669Z,15.04
2023-02-23T07:14:26.330Z,14.99
2023-02-23T07:16:28.630Z,14.99
2023-02-23T07:18:30.260Z,14.95
2023-02-23T07:20:32.121Z,14.93
2023-02-23T07:29:14.043Z,14.88
2023-02-23T07:31:17.444Z,14.92
2023-02-23T07:33:19.035Z,14.97
2023-02-23T07:35:20.904Z,14.94
2023-02-23T07:37:22.429Z,15.00
2023-02-23T07:39:24.009Z,14.99
2023-02-23T07:41:25.805Z,14.98
2023-02-23T07:43:27.383Z,14.95
2023-02-23T07:45:29.082Z,15.00
2023-02-23T07:47:32.183Z,15.01
2023-02-23T07:49:34.395Z,14.96
2023-02-23T07:51:36.167Z,14.93
2023-02-23T07:53:37.787Z,14.98
2023-02-23T07:55:39.605Z,14.96
2023-02-23T07:57:41.196Z,15.02
2023-02-23T07:59:42.964Z,14.92
2023-02-23T08:01:44.514Z,15.03
2023-02-23T08:03:47.480Z,14.96
2023-02-23T08:05:49.406Z,15.00
2023-02-23T08:07:50.959Z,14.98
2023-02-23T08:09:52.840Z,15.01
2023-02-23T08:11:54.430Z,15.04
2023-02-23T08:13:56.302Z,15.02
2023-02-23T08:15:58.410Z,14.98
2023-02-23T08:18:00.105Z,14.96
2023-02-23T08:20:03.248Z,14.94
2023-02-23T08:22:05.395Z,14.91
2023-02-23T08:24:07.465Z,14.83
2023-02-23T08:26:09.260Z,14.81
2023-02-23T08:28:10.917Z,14.80
2023-02-23T08:30:14.055Z,14.75
2023-02-23T08:32:15.706Z,14.84
2023-02-23T08:34:18.124Z,14.94
2023-02-23T08:36:21.162Z,15.02
2023-02-23T08:38:22.710Z,14.95
2023-02-23T08:40:24.586Z,14.86
2023-02-23T08:42:26.305Z,14.92
2023-02-23T08:44:27.875Z,14.96
2023-02-23T08:46:29.625Z,14.94
2023-02-23T08:48:31.279Z,15.04
2023-02-23T08:50:32.990Z,15.07
2023-02-23T08:52:36.068Z,15.05
2023-02-23T08:54:37.862Z,15.11
2023-02-23T08:56:39.413Z,15.14
2023-02-23T08:58:41.655Z,15.23
2023-02-23T09:00:44.563Z,15.27
2023-02-23T09:02:46.485Z,15.32
2023-02-23T09:04:48.057Z,15.32
2023-02-23T09:06:50.012Z,15.41
2023-02-23T09:08:53.482Z,15.46
2023-02-23T09:10:55.120Z,15.49
2023-02-23T09:12:57.101Z,15.50
2023-02-23T09:14:58.650Z,15.56
2023-02-23T09:17:00.139Z,15.50
2023-02-23T09:19:01.860Z,15.55
2023-02-23T09:21:04.555Z,15.57
2023-02-23T09:23:06.117Z,15.60
2023-02-23T09:25:09.495Z,15.69
2023-02-23T09:27:11.053Z,15.70
2023-02-23T09:29:12.664Z,15.73
2023-02-23T09:31:16.563Z,15.84
2023-02-23T09:33:18.220Z,15.94
2023-02-23T09:35:22.988Z,16.00
2023-02-23T09:37:24.612Z,16.06
2023-02-23T09:39:37.289Z,16.12
2023-02-23T09:42:00.182Z,16.24
2023-02-23T09:44:10.843Z,16.32
2023-02-23T09:46:25.963Z,16.43
2023-02-23T09:48:28.734Z,16.48
2023-02-23T09:50:33.899Z,16.46
2023-02-23T09:52:40.933Z,16.42
2023-02-23T09:54:42.927Z,16.42
2023-02-23T09:56:48.204Z,16.48
2023-02-23T09:58:51.304Z,16.50
2023-02-23T10:01:14.790Z,16.52
2023-02-23T10:03:27.144Z,16.50
2023-02-23T10:05:32.411Z,16.50
2023-02-23T10:07:45.673Z,16.52
2023-02-23T10:10:17.188Z,16.58
2023-02-23T10:12:29.457Z,16.58
2023-02-23T10:14:55.149Z,16.57
2023-02-23T10:17:11.306Z,16.60
2023-02-23T10:19:21.676Z,16.62
2023-02-23T10:21:31.257Z,16.66
2023-02-23T10:23:38.194Z,16.70
2023-02-23T10:25:49.409Z,16.81
2023-02-23T10:27:51.579Z,16.93
2023-02-23T10:29:59.210Z,16.98
2023-02-23T10:32:05.136Z,16.91
2023-02-23T10:34:13.897Z,16.87
2023-02-23T10:36:18.434Z,16.88
2023-02-23T10:38:20.047Z,16.89
2023-02-23T10:40:25.277Z,16.87
2023-02-23T10:42:28.732Z,16.84
2023-02-23T10:44:31.009Z,16.86
2023-02-23T10:46:39.695Z,16.87
2023-02-23T10:48:42.680Z,16.86
2023-02-23T10:50:45.263Z,16.89
2023-02-23T10:55:06.306Z,16.94
2023-02-23T10:57:08.137Z,16.97
2023-02-23T10:59:19.495Z,16.86
2023-02-23T11:01:34.582Z,16.89
2023-02-23T11:03:42.808Z,16.95
2023-02-23T11:05:46.897Z,16.91
2023-02-23T11:07:48.492Z,16.97
2023-02-23T11:09:50.497Z,16.96
2023-02-23T11:12:02.370Z,17.00
2023-02-23T11:14:16.760Z,17.01
2023-02-23T11:16:20.591Z,17.01
2023-02-23T11:18:25.824Z,16.96
2023-02-23T11:20:33.043Z,16.96
2023-02-23T11:22:37.163Z,16.96
2023-02-23T11:24:41.361Z,16.99
2023-02-23T11:26:45.912Z,17.01
2023-02-23T11:28:47.953Z,17.01
2023-02-23T11:30:49.869Z,17.03
2023-02-23T11:32:53.365Z,17.06
2023-02-23T11:35:21.126Z,17.19
2023-02-23T11:37:24.130Z,17.39
2023-02-23T11:39:25.761Z,17.63
2023-02-23T11:41:27.493Z,17.78
2023-02-23T11:43:29.265Z,17.83
2023-02-23T11:45:34.026Z,17.87
2023-02-23T11:47:40.331Z,17.89
2023-02-23T11:49:45.874Z,17.85
2023-02-23T11:51:49.184Z,17.80
2023-02-23T11:53:52.601Z,17.73
2023-02-23T11:55:58.928Z,17.77
2023-02-23T11:58:25.528Z,17.79
2023-02-23T12:00:27.900Z,17.72
2023-02-23T12:02:31.451Z,17.71
2023-02-23T12:04:36.131Z,17.80
2023-02-23T12:06:40.015Z,17.82
2023-02-23T12:08:46.216Z,17.86
2023-02-23T12:11:04.002Z,17.92
2023-02-23T12:13:18.976Z,18.06
2023-02-23T12:15:35.563Z,18.10
2023-02-23T12:17:44.506Z,18.15
2023-02-23T12:19:51.184Z,18.24
2023-02-23T12:22:02.303Z,18.39
2023-02-23T12:24:15.787Z,18.54
2023-02-23T12:26:21.180Z,18.73
2023-02-23T12:28:32.434Z,18.83
2023-02-23T12:30:42.440Z,19.00
2023-02-23T12:32:48.813Z,19.14
2023-02-23T12:34:57.105Z,19.29
2023-02-23T12:37:03.905Z,19.41
2023-02-23T12:39:16.150Z,19.46
2023-02-23T12:41:26.204Z,19.50
2023-02-23T12:43:36.104Z,19.35
2023-02-23T12:45:45.211Z,19.37
2023-02-23T12:47:53.572Z,19.36
2023-02-23T12:49:59.043Z,19.24
2023-02-23T12:52:09.863Z,19.10
2023-02-23T12:54:13.042Z,19.06
2023-02-23T12:56:34.827Z,19.03
2023-02-23T12:58:43.693Z,19.04
2023-02-23T13:00:53.233Z,19.02
2023-02-23T13:03:12.682Z,18.89
2023-02-23T13:05:23.486Z,18.89
2023-02-23T13:07:34.497Z,18.81
2023-02-23T13:09:47.523Z,18.88
2023-02-23T13:12:14.880Z,18.92
2023-02-23T13:14:30.004Z,18.91
2023-02-23T13:16:35.926Z,18.85
2023-02-23T13:18:43.692Z,18.85
2023-02-23T13:20:50.554Z,18.83
2023-02-23T13:22:58.413Z,18.78
2023-02-23T13:25:21.165Z,18.79
2023-02-23T13:27:30.452Z,18.73
2023-02-23T13:29:36.726Z,18.76
2023-02-23T13:31:40.808Z,18.78
2023-02-23T13:33:44.499Z,18.72
2023-02-23T13:35:46.203Z,18.74
2023-02-23T13:37:52.725Z,18.76
2023-02-23T13:40:02.928Z,18.77
2023-02-23T13:42:17.307Z,18.75
2023-02-23T13:44:27.807Z,18.73
2023-02-23T13:46:40.724Z,18.64
2023-02-23T13:48:56.672Z,18.65
2023-02-23T13:51:05.920Z,18.55
2023-02-23T13:53:27.106Z,18.57
2023-02-23T13:55:49.657Z,18.53
2023-02-23T13:57:52.147Z,18.53
2023-02-23T13:59:55.134Z,18.50
2023-02-23T14:01:59.743Z,18.47
2023-02-23T14:04:03.593Z,18.37
2023-02-23T14:06:05.658Z,18.32
2023-02-23T14:08:07.728Z,18.21
2023-02-23T14:10:17.456Z,18.22
2023-02-23T14:12:24.733Z,18.21
2023-02-23T14:14:44.378Z,18.23
2023-02-23T14:17:09.800Z,18.24
2023-02-23T14:19:32.388Z,18.25
2023-02-23T14:21:44.310Z,18.21
2023-02-23T14:23:51.894Z,18.29
2023-02-23T14:26:11.586Z,18.30
2023-02-23T14:28:25.242Z,18.33
2023-02-23T14:30:28.494Z,18.30
2023-02-23T14:32:37.463Z,18.34
2023-02-23T14:34:44.633Z,18.33
2023-02-23T14:36:46.298Z,18.33
2023-02-23T14:38:51.352Z,18.25
2023-02-23T14:40:54.551Z,18.23
2023-02-23T14:42:58.823Z,18.19
2023-02-23T14:45:05.587Z,18.21
2023-02-23T14:47:11.611Z,18.21
2023-02-23T14:49:20.127Z,18.21
2023-02-23T14:51:25.708Z,18.22
2023-02-23T14:53:27.445Z,18.20
2023-02-23T14:55:30.499Z,18.16
2023-02-23T14:57:36.327Z,18.13
2023-02-23T14:59:40.992Z,18.10
2023-02-23T15:01:42.542Z,18.07
2023-02-23T15:04:11.999Z,18.09
2023-02-23T15:06:15.960Z,18.08
2023-02-23T15:09:01.890Z,18.10
2023-02-23T15:14:21.785Z,18.03
2023-02-23T15:16:36.091Z,17.99
2023-02-23T15:20:20.305Z,18.01
2023-02-23T15:22:00.167Z,17.97
2023-02-23T15:26:58.954Z,17.97
2023-02-23T15:29:05.855Z,17.96
2023-02-23T15:31:10.734Z,17.91
2023-02-23T15:33:15.041Z,17.86
2023-02-23T15:35:16.805Z,17.86
2023-02-23T15:37:27.496Z,17.87
2023-02-23T15:39:35.067Z,17.88
2023-02-23T15:41:37.920Z,17.86
2023-02-23T15:43:39.571Z,17.85
2023-02-23T15:45:46.290Z,17.86
2023-02-23T15:47:48.501Z,17.85
2023-02-23T15:49:50.156Z,17.87
2023-02-23T15:51:57.210Z,17.85
2023-02-23T15:54:02.520Z,17.81
2023-02-23T15:56:12.217Z,17.80
2023-02-23T15:58:20.890Z,17.83
2023-02-23T16:00:30.125Z,17.83
2023-02-23T16:02:31.926Z,17.82
2023-02-23T16:04:38.218Z,17.79
2023-02-23T16:06:48.606Z,17.79
2023-02-23T16:08:56.680Z,17.79
2023-02-23T16:11:09.702Z,17.75
2023-02-23T16:13:15.156Z,17.74
2023-02-23T16:15:23.610Z,17.77
2023-02-23T16:17:28.465Z,17.77
2023-02-23T16:19:30.626Z,17.77
2023-02-23T16:21:32.812Z,17.70
2023-02-23T16:23:37.127Z,17.73
2023-02-23T16:25:43.640Z,17.69
2023-02-23T16:27:57.012Z,17.71
2023-02-23T16:30:04.560Z,17.68
2023-02-23T16:32:11.439Z,17.69
2023-02-23T16:34:23.900Z,17.67
2023-02-23T16:36:34.798Z,17.67
2023-02-23T16:38:38.629Z,17.65
2023-02-23T16:40:40.550Z,17.66
2023-02-23T16:42:42.123Z,17.64
2023-02-23T16:44:45.124Z,17.60
2023-02-23T16:47:10.179Z,17.62
2023-02-23T16:49:12.368Z,17.59
2023-02-23T16:51:16.782Z,17.53
2023-02-23T16:53:18.369Z,17.45
2023-02-23T16:55:21.056Z,17.47
2023-02-23T16:57:27.423Z,17.46
2023-02-23T16:59:35.089Z,17.45
2023-02-23T17:01:37.988Z,17.46
2023-02-23T17:03:47.379Z,17.43
2023-02-23T17:05:54.125Z,17.43
2023-02-23T17:07:55.779Z,17.43
2023-02-23T17:09:57.360Z,17.41
2023-02-23T17:11:59.037Z,17.45
2023-02-23T17:14:00.548Z,17.42
2023-02-23T17:16:04.356Z,17.43
2023-02-23T17:18:07.870Z,17.40
2023-02-23T17:20:10.873Z,17.42
2023-02-23T17:22:13.082Z,17.40
2023-02-23T17:24:14.664Z,17.37
2023-02-23T17:26:17.944Z,17.39
2023-02-23T17:28:19.592Z,17.35
2023-02-23T17:30:21.935Z,17.34
2023-02-23T17:32:23.648Z,17.36
2023-02-23T17:34:26.894Z,17.29
2023-02-23T17:36:28.490Z,17.24
2023-02-23T17:38:30.045Z,17.25
2023-02-23T17:40:31.607Z,17.29
2023-02-23T17:42:33.229Z,17.27
2023-02-23T17:44:34.949Z,17.27
2023-02-23T17:46:37.102Z,17.27
2023-02-23T17:48:38.683Z,17.27
2023-02-23T17:50:41.538Z,17.22
2023-02-23T17:52:43.262Z,17.20
2023-02-23T17:54:45.132Z,17.18
2023-02-23T17:56:55.135Z,17.18
2023-02-23T17:58:56.913Z,17.15
2023-02-23T18:01:00.774Z,17.10
2023-02-23T18:03:02.567Z,17.07
2023-02-23T18:05:04.689Z,17.05
2023-02-23T18:07:07.737Z,17.07
2023-02-23T18:09:09.421Z,17.09
2023-02-23T18:11:11.413Z,17.08
2023-02-23T18:13:12.996Z,17.04
2023-02-23T18:15:14.537Z,17.07
2023-02-23T18:17:16.588Z,17.07
2023-02-23T18:19:18.279Z,17.09
2023-02-23T18:21:22.093Z,17.03
2023-02-23T18:23:26.707Z,17.01
2023-02-23T18:25:29.731Z,16.98
2023-02-23T18:27:31.232Z,16.95
2023-02-23T18:29:34.837Z,16.93
2023-02-23T18:31:36.553Z,16.95
2023-02-23T18:33:38.184Z,16.98
2023-02-23T18:35:42.152Z,16.98
2023-02-23T18:37:43.754Z,16.94
2023-02-23T18:39:50.766Z,16.91
2023-02-23T18:41:52.370Z,16.93
2023-02-23T18:43:53.935Z,16.95
2023-02-23T18:45:55.697Z,16.96
2023-02-23T18:47:57.315Z,16.99
2023-02-23T18:49:58.858Z,17.05
2023-02-23T18:52:00.436Z,17.11
2023-02-23T18:54:02.353Z,17.11
2023-02-23T18:56:06.983Z,17.05
2023-02-23T18:58:08.549Z,17.03
2023-02-23T19:00:11.938Z,17.05
2023-02-23T19:02:13.469Z,16.98
2023-02-23T19:04:15.018Z,16.94
2023-02-23T19:08:32.933Z,16.93
2023-02-23T19:10:39.617Z,16.94
2023-02-23T19:12:43.695Z,16.94
2023-02-23T19:14:49.747Z,16.94
2023-02-23T19:16:51.621Z,16.96
2023-02-23T19:18:53.454Z,16.91
2023-02-23T19:20:54.992Z,16.94
2023-02-23T19:22:56.615Z,16.95
2023-02-23T19:25:00.331Z,16.92
2023-02-23T19:27:01.907Z,16.93
2023-02-23T19:29:05.256Z,16.90
2023-02-23T19:31:08.955Z,16.93
2023-02-23T19:33:10.824Z,16.96
2023-02-23T19:35:13.755Z,16.73
2023-02-23T19:37:15.394Z,16.50
2023-02-23T19:39:16.970Z,16.53
2023-02-23T19:41:20.939Z,16.41
2023-02-23T19:43:22.966Z,16.37
2023-02-23T19:45:25.937Z,16.43
2023-02-23T19:47:27.602Z,16.35
2023-02-23T19:49:29.304Z,16.28
2023-02-23T19:51:30.861Z,16.27
2023-02-23T19:53:32.725Z,16.49
2023-02-23T19:55:34.347Z,16.52
2023-02-23T19:57:35.916Z,16.52
2023-02-23T19:59:37.746Z,16.30
2023-02-23T20:01:40.781Z,16.19
2023-02-23T20:03:43.919Z,16.14
2023-02-23T20:05:45.542Z,16.19
2023-02-23T20:07:47.104Z,16.24
2023-02-23T20:09:58.819Z,16.25
2023-02-23T20:12:00.333Z,16.31
2023-02-23T20:14:04.368Z,16.25
2023-02-23T20:16:08.256Z,16.27
2023-02-23T20:18:11.607Z,16.08
2023-02-23T20:20:13.861Z,16.03
2023-02-23T20:22:15.447Z,16.09
2023-02-23T20:24:17.920Z,16.16
2023-02-23T20:26:22.721Z,16.21
2023-02-23T20:28:24.279Z,16.07
2023-02-23T20:30:25.898Z,16.08
2023-02-23T20:32:27.703Z,16.04
2023-02-23T20:34:30.836Z,16.01
2023-02-23T20:36:32.472Z,15.99
2023-02-23T20:38:34.124Z,16.02
2023-02-23T20:40:35.902Z,16.08
2023-02-23T20:42:37.431Z,16.05
2023-02-23T20:44:39.042Z,16.03
2023-02-23T20:46:41.521Z,16.02
2023-02-23T20:48:43.516Z,16.01
2023-02-23T20:50:46.617Z,16.01
2023-02-23T20:52:48.780Z,16.02
2023-02-23T20:54:50.309Z,16.01
2023-02-23T20:56:51.976Z,16.03
2023-02-23T20:59:03.564Z,16.03
2023-02-23T21:01:11.706Z,16.11
2023-02-23T21:03:13.283Z,16.13
2023-02-23T21:05:18.066Z,16.13
2023-02-23T21:07:20.982Z,16.09
2023-02-23T21:09:22.560Z,16.04
2023-02-23T21:11:24.636Z,16.02
2023-02-23T21:13:26.195Z,16.01
2023-02-23T21:15:28.836Z,16.05
2023-02-23T21:17:30.476Z,16.07
2023-02-23T21:19:32.008Z,16.09
2023-02-23T21:21:38.740Z,16.11
2023-02-23T21:23:42.564Z,16.10
2023-02-23T21:25:44.139Z,16.09
2023-02-23T21:27:46.666Z,16.09
2023-02-23T21:29:48.241Z,16.03
2023-02-23T21:31:50.014Z,16.01
2023-02-23T21:33:51.778Z,15.97
2023-02-23T21:35:53.338Z,16.03
2023-02-23T21:37:54.893Z,16.00
2023-02-23T21:39:57.853Z,16.01
2023-02-23T21:42:00.649Z,16.00
2023-02-23T21:44:05.450Z,16.01
2023-02-23T21:46:08.176Z,15.99
2023-02-23T21:48:09.818Z,15.97
2023-02-23T21:50:14.846Z,15.95
2023-02-23T21:52:16.965Z,15.96
2023-02-23T21:54:18.543Z,15.90
2023-02-23T21:56:22.685Z,15.87
2023-02-23T21:58:24.893Z,15.87
2023-02-23T22:00:26.411Z,15.85
2023-02-23T22:02:28.111Z,15.82
2023-02-23T22:04:29.694Z,15.82
2023-02-23T22:06:35.466Z,15.86
2023-02-23T22:08:37.109Z,15.82
2023-02-23T22:10:38.797Z,15.81
2023-02-23T22:12:41.718Z,15.84
2023-02-23T22:14:43.320Z,15.80
2023-02-23T22:16:45.618Z,15.81
2023-02-23T22:18:47.661Z,15.79
2023-02-23T22:20:56.159Z,15.80
2023-02-23T22:22:57.767Z,15.82
2023-02-23T22:24:59.312Z,15.61
2023-02-23T22:27:00.827Z,15.72
2023-02-23T22:29:03.994Z,15.65
2023-02-23T22:31:08.464Z,15.63
2023-02-23T22:33:10.310Z,15.62
2023-02-23T22:35:12.148Z,15.72
2023-02-23T22:37:16.658Z,15.69
2023-02-23T22:39:18.373Z,15.69
2023-02-23T22:41:24.192Z,15.67
2023-02-23T22:43:26.151Z,15.64
2023-02-23T22:45:29.018Z,15.61
2023-02-23T22:47:30.560Z,15.62
2023-02-23T22:49:32.290Z,15.61
2023-02-23T22:51:36.172Z,15.60
2023-02-23T22:53:37.948Z,15.63
2023-02-23T22:55:39.527Z,15.64
2023-02-23T22:57:41.150Z,15.63
2023-02-23T22:59:42.793Z,15.64
2023-02-23T23:01:46.097Z,15.63
2023-02-23T23:03:47.657Z,15.71
2023-02-23T23:05:49.198Z,15.70
2023-02-23T23:07:50.785Z,15.61
2023-02-23T23:09:52.339Z,15.67
2023-02-23T23:11:53.906Z,15.55
2023-02-23T23:13:57.004Z,15.54
2023-02-23T23:16:07.706Z,15.60
2023-02-23T23:18:12.109Z,15.56
2023-02-23T23:20:14.106Z,15.57
2023-02-23T23:22:15.712Z,15.57
2023-02-23T23:24:17.293Z,15.56
2023-02-23T23:26:20.959Z,15.55
2023-02-23T23:28:22.528Z,15.43
2023-02-23T23:30:24.574Z,15.51
2023-02-23T23:32:26.976Z,15.49
2023-02-23T23:34:29.901Z,15.47
2023-02-23T23:36:35.390Z,15.42
2023-02-23T23:38:36.941Z,15.37
2023-02-23T23:40:38.474Z,15.35
2023-02-23T23:42:41.339Z,15.32
2023-02-23T23:44:43.026Z,15.34
2023-02-23T23:46:46.096Z,15.30
2023-02-23T23:48:49.358Z,15.29
2023-02-23T23:50:52.257Z,15.26
2023-02-23T23:52:54.049Z,15.27
2023-02-23T23:54:55.707Z,15.25
2023-02-23T23:56:57.739Z,15.18
2023-02-23T23:58:59.303Z,15.21
